createdAt,value
2022-11-15T00:01:18.088Z,5.74
2022-11-15T00:06:20.883Z,5.69
2022-11-15T00:11:23.632Z,5.69
2022-11-15T00:16:26.798Z,5.70
2022-11-15T00:21:29.516Z,5.68
2022-11-15T00:26:32.222Z,5.68
2022-11-15T00:31:35.058Z,5.64
2022-11-15T00:36:37.792Z,5.60
2022-11-15T00:41:40.529Z,5.66
2022-11-15T00:46:43.270Z,5.71
2022-11-15T00:51:45.991Z,5.70
2022-11-15T00:56:48.725Z,5.68
2022-11-15T01:01:51.429Z,5.65
2022-11-15T01:06:54.556Z,5.64
2022-11-15T01:11:57.297Z,5.61
2022-11-15T01:17:00.023Z,5.56
2022-11-15T01:22:02.761Z,5.53
2022-11-15T01:27:05.935Z,5.54
2022-11-15T01:32:08.692Z,5.51
2022-11-15T01:37:11.513Z,5.43
2022-11-15T01:42:14.670Z,5.40
2022-11-15T01:47:22.425Z,5.41
2022-11-15T01:52:27.643Z,5.42
2022-11-15T01:57:30.992Z,5.37
2022-11-15T02:02:34.884Z,5.36
2022-11-15T02:07:37.860Z,5.37
2022-11-15T02:12:41.493Z,5.38
2022-11-15T02:17:59.437Z,5.37
2022-11-15T02:23:02.103Z,5.38
2022-11-15T02:28:34.758Z,5.37
2022-11-15T02:34:06.553Z,5.35
2022-11-15T02:39:32.505Z,5.35
2022-11-15T02:44:39.436Z,5.38
2022-11-15T02:49:47.466Z,5.39
2022-11-15T02:54:56.529Z,5.39
2022-11-15T03:00:18.798Z,5.42
2022-11-15T03:05:57.240Z,5.46
2022-11-15T03:11:17.265Z,5.46
2022-11-15T03:16:26.226Z,5.34
2022-11-15T03:21:30.949Z,5.19
2022-11-15T03:26:36.500Z,5.09
2022-11-15T03:31:50.332Z,5.03
2022-11-15T03:36:54.279Z,5.04
2022-11-15T03:42:25.254Z,5.09
2022-11-15T03:47:38.186Z,5.15
2022-11-15T03:52:42.175Z,5.11
2022-11-15T03:57:45.441Z,5.13
2022-11-15T04:02:48.033Z,5.16
2022-11-15T04:07:50.837Z,5.12
2022-11-15T04:12:53.947Z,5.02
2022-11-15T04:17:58.384Z,4.96
2022-11-15T04:23:21.227Z,4.97
2022-11-15T04:28:23.947Z,4.98
2022-11-15T04:33:26.848Z,4.98
2022-11-15T04:38:29.533Z,4.93
2022-11-15T04:43:32.582Z,4.93
2022-11-15T04:48:35.647Z,4.97
2022-11-15T04:53:38.391Z,5.04
2022-11-15T04:58:41.198Z,5.10
2022-11-15T05:04:03.664Z,5.08
2022-11-15T05:09:06.442Z,5.06
2022-11-15T05:14:09.342Z,4.91
2022-11-15T05:19:12.111Z,4.75
2022-11-15T05:24:14.838Z,4.57
2022-11-15T05:29:17.962Z,4.46
2022-11-15T05:34:22.714Z,4.43
2022-11-15T05:39:27.025Z,4.40
2022-11-15T05:44:29.850Z,4.37
2022-11-15T05:49:37.619Z,4.32
2022-11-15T05:54:40.845Z,4.33
2022-11-15T05:59:44.595Z,4.37
2022-11-15T06:04:47.933Z,4.47
2022-11-15T06:09:50.669Z,4.59
2022-11-15T06:14:53.377Z,4.65
2022-11-15T06:19:56.111Z,4.64
2022-11-15T06:25:04.049Z,4.60
2022-11-15T06:30:08.585Z,4.59
2022-11-15T06:35:11.207Z,4.63
2022-11-15T06:40:13.991Z,4.64
2022-11-15T06:45:16.858Z,4.59
2022-11-15T06:50:20.403Z,4.56
2022-11-15T06:55:23.257Z,4.54
2022-11-15T07:00:26.232Z,4.53
2022-11-15T07:05:31.743Z,4.54
2022-11-15T07:10:34.613Z,4.49
2022-11-15T07:15:37.685Z,4.47
2022-11-15T07:20:53.852Z,4.34
2022-11-15T07:26:19.644Z,4.31
2022-11-15T07:31:24.740Z,4.22
2022-11-15T07:36:32.565Z,4.21
2022-11-15T07:41:36.103Z,4.23
2022-11-15T07:46:42.331Z,4.26
2022-11-15T07:51:49.646Z,4.32
2022-11-15T07:57:17.160Z,4.46
2022-11-15T08:02:31.728Z,4.61
2022-11-15T08:07:44.805Z,4.73
2022-11-15T08:13:11.949Z,4.85
2022-11-15T08:18:17.747Z,4.92
2022-11-15T08:28:47.676Z,5.01
2022-11-15T08:34:13.708Z,5.15
2022-11-15T08:44:54.398Z,5.35
2022-11-15T08:50:00.676Z,5.42
2022-11-15T09:00:58.072Z,5.33
2022-11-15T09:06:07.640Z,5.29
2022-11-15T09:11:29.377Z,5.22
2022-11-15T09:16:51.045Z,5.23
2022-11-15T09:22:29.006Z,5.30
2022-11-15T09:27:44.352Z,5.31
2022-11-15T09:33:00.812Z,5.30
2022-11-15T09:38:18.023Z,5.40
2022-11-15T09:43:35.419Z,5.50
2022-11-15T09:48:55.506Z,5.46
2022-11-15T09:59:56.811Z,5.40
2022-11-15T10:05:05.870Z,5.48
2022-11-15T10:10:32.226Z,5.49
2022-11-15T10:15:54.709Z,5.40
2022-11-15T10:27:36.554Z,5.58
2022-11-15T10:32:41.696Z,5.64
2022-11-15T10:37:44.553Z,5.57
2022-11-15T10:42:48.297Z,5.50
2022-11-15T10:47:51.095Z,5.46
2022-11-15T10:52:54.678Z,5.44
2022-11-15T10:58:06.781Z,5.48
2022-11-15T11:03:38.624Z,5.48
2022-11-15T11:08:54.375Z,5.49
2022-11-15T11:14:13.365Z,5.54
2022-11-15T11:19:36.477Z,5.52
2022-11-15T11:24:57.873Z,5.53
2022-11-15T11:30:53.017Z,5.52
2022-11-15T11:36:24.796Z,5.36
2022-11-15T11:41:54.337Z,5.29
2022-11-15T11:47:08.723Z,5.34
2022-11-15T11:52:20.827Z,5.34
2022-11-15T11:57:34.033Z,5.35
2022-11-15T12:02:42.692Z,5.36
2022-11-15T12:07:47.836Z,5.41
2022-11-15T12:12:51.681Z,5.46
2022-11-15T12:18:01.568Z,5.47
2022-11-15T12:23:29.886Z,5.43
2022-11-15T12:29:06.395Z,5.34
2022-11-15T12:34:43.541Z,5.26
2022-11-15T12:40:04.816Z,5.21
2022-11-15T12:45:29.046Z,5.18
2022-11-15T12:50:54.691Z,5.11
2022-11-15T12:56:12.630Z,5.06
2022-11-15T13:01:34.306Z,5.02
2022-11-15T13:06:44.964Z,5.05
2022-11-15T13:11:51.062Z,5.03
2022-11-15T13:17:00.745Z,5.05
2022-11-15T13:22:28.392Z,5.03
2022-11-15T13:27:32.289Z,4.97
2022-11-15T13:32:35.250Z,4.95
2022-11-15T13:37:38.107Z,4.95
2022-11-15T13:42:45.638Z,4.91
2022-11-15T13:47:57.358Z,4.85
2022-11-15T13:53:03.827Z,4.81
2022-11-15T13:58:07.390Z,4.74
2022-11-15T14:03:26.794Z,4.64
2022-11-15T14:08:29.558Z,4.56
2022-11-15T14:13:32.974Z,4.54
2022-11-15T14:18:59.964Z,4.49
2022-11-15T14:24:21.700Z,4.44
2022-11-15T14:29:25.710Z,4.51
2022-11-15T14:34:28.457Z,4.57
2022-11-15T14:39:38.457Z,4.61
2022-11-15T14:44:44.856Z,4.60
2022-11-15T14:49:48.641Z,4.57
2022-11-15T14:54:51.373Z,4.54
2022-11-15T14:59:54.341Z,4.59
2022-11-15T15:04:59.076Z,4.63
2022-11-15T15:10:37.916Z,4.62
2022-11-15T15:15:33.459Z,4.63
2022-11-15T15:20:39.276Z,4.69
2022-11-15T15:25:43.054Z,4.74
2022-11-15T15:30:45.749Z,4.79
2022-11-15T15:35:48.567Z,4.80
2022-11-15T15:40:51.787Z,4.82
2022-11-15T15:45:54.765Z,4.85
2022-11-15T15:50:57.490Z,4.85
2022-11-15T15:56:00.236Z,4.89
2022-11-15T16:01:03.655Z,4.97
2022-11-15T16:06:40.401Z,5.02
2022-11-15T16:11:45.630Z,4.97
2022-11-15T16:16:48.380Z,4.93
2022-11-15T16:21:53.084Z,4.90
2022-11-15T16:26:55.922Z,4.90
2022-11-15T16:31:58.706Z,4.87
2022-11-15T16:37:01.609Z,4.87
2022-11-15T16:42:04.481Z,4.81
2022-11-15T16:47:17.634Z,4.74
2022-11-15T16:52:21.479Z,4.73
2022-11-15T16:57:24.564Z,4.75
2022-11-15T17:02:27.290Z,4.73
2022-11-15T17:07:30.157Z,4.70
2022-11-15T17:12:34.641Z,4.72
2022-11-15T17:17:37.374Z,4.76
2022-11-15T17:22:40.109Z,4.77
2022-11-15T17:27:43.184Z,4.76
2022-11-15T17:32:47.930Z,4.78
2022-11-15T17:37:50.806Z,4.84
2022-11-15T17:42:53.495Z,4.87
2022-11-15T17:47:56.257Z,4.87
2022-11-15T17:52:59.958Z,4.83
2022-11-15T17:58:02.679Z,4.80
2022-11-15T18:03:05.384Z,4.77
2022-11-15T18:08:12.735Z,4.77
2022-11-15T18:13:18.055Z,4.75
2022-11-15T18:18:20.752Z,4.75
2022-11-15T18:23:23.431Z,4.78
2022-11-15T18:28:34.793Z,4.86
2022-11-15T18:33:38.570Z,4.82
2022-11-15T18:38:41.893Z,4.74
2022-11-15T18:43:45.153Z,4.75
2022-11-15T18:48:50.544Z,4.78
2022-11-15T18:53:55.371Z,4.77
2022-11-15T18:59:00.493Z,4.75
2022-11-15T19:04:10.353Z,4.74
2022-11-15T19:09:16.125Z,4.71
2022-11-15T19:14:20.199Z,4.71
2022-11-15T19:19:26.001Z,4.70
2022-11-15T19:24:29.990Z,4.78
2022-11-15T19:29:32.740Z,4.82
2022-11-15T19:34:35.495Z,4.84
2022-11-15T19:39:41.079Z,4.81
2022-11-15T19:44:44.274Z,4.85
2022-11-15T19:49:47.019Z,4.93
2022-11-15T19:54:50.247Z,4.92
2022-11-15T19:59:52.942Z,4.90
2022-11-15T20:04:55.702Z,4.92
2022-11-15T20:09:58.986Z,4.94
2022-11-15T20:15:01.786Z,4.97
2022-11-15T20:20:04.947Z,4.97
2022-11-15T20:25:08.000Z,4.93
2022-11-15T20:30:11.055Z,4.95
2022-11-15T20:35:13.962Z,4.99
2022-11-15T20:40:17.026Z,5.05
2022-11-15T20:45:20.067Z,5.02
2022-11-15T20:50:43.527Z,5.00
2022-11-15T20:55:49.564Z,5.00
2022-11-15T21:00:55.796Z,5.10
2022-11-15T21:05:58.861Z,5.11
2022-11-15T21:11:20.202Z,5.06
2022-11-15T21:16:23.419Z,5.04
2022-11-15T21:21:26.039Z,5.05
2022-11-15T21:26:28.852Z,5.00
2022-11-15T21:31:32.153Z,5.00
2022-11-15T21:36:34.911Z,4.95
2022-11-15T21:41:37.720Z,4.92
2022-11-15T21:46:40.493Z,4.83
2022-11-15T21:51:43.600Z,4.82
2022-11-15T21:56:46.350Z,4.79
2022-11-15T22:02:07.873Z,4.76
2022-11-15T22:07:10.756Z,4.77
2022-11-15T22:12:13.714Z,4.77
2022-11-15T22:17:16.676Z,4.74
2022-11-15T22:22:19.546Z,4.71
2022-11-15T22:27:22.466Z,4.69
2022-11-15T22:32:25.344Z,4.64
2022-11-15T22:37:28.255Z,4.61
2022-11-15T22:42:32.433Z,4.66
2022-11-15T22:47:35.324Z,4.70
2022-11-15T22:52:38.155Z,4.67
2022-11-15T22:57:41.136Z,4.66
2022-11-15T23:02:44.005Z,4.68
2022-11-15T23:07:46.887Z,4.69
2022-11-15T23:13:08.467Z,4.69
2022-11-15T23:18:11.364Z,4.70
2022-11-15T23:23:14.299Z,4.69
2022-11-15T23:28:17.200Z,4.68
2022-11-15T23:33:38.700Z,4.69
2022-11-15T23:38:41.622Z,4.70
2022-11-15T23:43:44.522Z,4.72
2022-11-15T23:48:47.639Z,4.73
2022-11-15T23:53:50.737Z,4.76
2022-11-15T23:58:53.902Z,4.78
